Time;durP1;ratioP1;P1;durP2;ratioP2;P2;SDS_P1;SDS_P2;PMS_P1;PMS_P2;Temp;Humidity;BMP_temperature;BMP_pressure;BME280_temperature;BME280_humidity;BME280_pressure;Samples;Min_cycle;Max_cycle;Signal;HPM_P1;HPM_P2
2021/11/13 00:01:38;;;;;;;1.80;1.45;;;20.40;48.30;;;24.07;32.62;100881.13;5093135;28;20060;-39
2021/11/13 00:04:04;;;;;;;1.63;1.45;;;20.40;48.30;;;24.05;32.65;100880.38;5093563;28;20135;-39
2021/11/13 00:06:30;;;;;;;1.50;1.40;;;20.40;48.30;;;24.08;32.82;100884.66;5093368;28;20517;-39
2021/11/13 00:08:56;;;;;;;1.73;1.60;;;20.40;48.30;;;24.05;32.83;100883.91;5092852;28;20056;-39
2021/11/13 00:11:22;;;;;;;1.95;1.50;;;20.40;48.30;;;24.07;32.67;100882.94;5092946;28;20437;-40
2021/11/13 00:13:52;;;;;;;1.48;1.35;;;20.40;48.30;;;24.06;32.78;100882.09;5093261;28;20391;-39
2021/11/13 00:16:18;;;;;;;1.70;1.60;;;20.40;48.30;;;24.05;32.71;100883.06;5092862;28;20097;-40
2021/11/13 00:18:44;;;;;;;1.33;1.23;;;20.40;48.30;;;24.07;32.77;100878.44;5092894;28;20056;-39
2021/11/13 00:21:13;;;;;;;1.60;1.50;;;20.40;48.30;;;24.02;32.55;100861.91;5091848;28;20054;-39
2021/11/13 00:23:39;;;;;;;1.40;1.30;;;20.40;48.30;;;24.05;32.55;100857.19;5092652;28;20063;-40
2021/11/13 00:26:05;;;;;;;1.80;1.33;;;20.40;48.20;;;24.03;32.76;100861.78;5093179;28;20072;-40
2021/11/13 00:28:30;;;;;;;1.60;1.50;;;20.40;48.20;;;24.04;32.81;100866.19;5092750;28;20056;-39
2021/11/13 00:30:56;;;;;;;1.70;1.50;;;20.40;48.30;;;24.07;32.56;100862.41;5093129;28;20044;-39
2021/11/13 00:33:22;;;;;;;1.85;1.40;;;20.40;48.30;;;24.04;32.71;100858.16;5092598;28;20056;-39
2021/11/13 00:35:52;;;;;;;3.00;1.52;;;20.40;48.20;;;24.06;32.55;100860.72;5092558;28;20058;-40
2021/11/13 00:38:20;;;;;;;1.80;1.70;;;20.40;48.30;;;24.04;32.70;100852.81;5092902;28;20052;-40
2021/11/13 00:40:45;;;;;;;1.58;1.48;;;20.40;48.20;;;24.05;32.69;100851.84;5092446;28;20048;-39
2021/11/13 00:43:12;;;;;;;1.50;1.40;;;20.40;48.20;;;24.03;32.66;100859.13;5092636;28;20091;-39
2021/11/13 00:45:37;;;;;;;1.92;1.67;;;20.40;48.30;;;24.08;32.80;100857.94;5092850;28;20050;-40
2021/11/13 00:48:04;;;;;;;1.60;1.50;;;20.40;48.30;;;24.05;32.81;100856.34;5093138;28;20052;-38
2021/11/13 00:50:30;;;;;;;1.70;1.60;;;20.40;48.20;;;24.05;32.71;100846.50;5092345;28;20051;-40
2021/11/13 00:52:55;;;;;;;1.60;1.50;;;20.40;48.20;;;24.02;32.82;100848.56;5092389;28;20127;-39
2021/11/13 00:55:23;;;;;;;2.17;1.60;;;20.40;48.20;;;24.04;32.54;100852.00;5074818;28;20083;-39
2021/11/13 00:57:50;;;;;;;2.28;1.52;;;20.40;48.30;;;24.00;32.74;100851.34;5092656;28;20177;-39
2021/11/13 01:00:21;;;;;;;1.50;1.40;;;20.40;48.20;;;24.02;32.77;100848.56;5091872;28;20055;-39
2021/11/13 01:02:47;;;;;;;1.58;1.40;;;20.40;48.20;;;24.05;32.73;100859.00;5092094;28;20137;-38
2021/11/13 01:05:14;;;;;;;1.88;1.63;;;20.40;48.20;;;24.03;32.62;100858.28;5092036;28;20044;-38
2021/11/13 01:07:39;;;;;;;1.70;1.48;;;20.40;48.30;;;24.02;32.74;100853.91;5092197;28;20052;-39
2021/11/13 01:10:14;;;;;;;2.17;1.48;;;20.40;48.30;;;24.03;32.73;100839.59;5092044;28;20369;-38
2021/11/13 01:12:40;;;;;;;2.40;1.55;;;20.40;48.20;;;24.04;32.49;100835.97;5092096;28;20079;-39
2021/11/13 01:15:09;;;;;;;1.58;1.48;;;20.40;48.20;;;24.03;32.69;100842.25;5092347;28;20524;-40
2021/11/13 01:17:36;;;;;;;1.60;1.50;;;20.40;48.20;;;24.04;32.59;100841.31;5092611;28;20063;-40
2021/11/13 01:20:06;;;;;;;2.00;1.73;;;20.40;48.20;;;24.03;32.67;100845.78;5091959;28;20048;-40
2021/11/13 01:22:36;;;;;;;1.65;1.50;;;20.40;48.20;;;24.04;32.59;100858.16;5091972;28;20063;-40
2021/11/13 01:25:02;;;;;;;1.40;1.30;;;20.40;48.20;;;24.05;32.58;100856.34;5091972;28;20079;-39
2021/11/13 01:27:28;;;;;;;2.00;1.80;;;20.40;48.30;;;24.03;32.51;100853.78;5092288;28;20037;-39
2021/11/13 01:29:54;;;;;;;2.22;1.60;;;20.40;48.20;;;23.99;32.69;100852.31;5091720;28;20051;-40
2021/11/13 01:32:25;;;;;;;1.80;1.70;;;20.40;48.30;;;24.03;32.60;100850.28;5091764;28;20511;-38
2021/11/13 01:34:51;;;;;;;1.92;1.73;;;20.40;48.30;;;24.02;32.62;100865.44;5095198;28;20048;-39
2021/11/13 01:37:16;;;;;;;1.88;1.70;;;20.40;48.50;;;24.05;32.60;100867.88;5095712;28;20044;-39
2021/11/13 01:39:42;;;;;;;1.85;1.70;;;20.40;48.30;;;24.05;32.59;100854.50;5094978;28;20052;-39
2021/11/13 01:42:08;;;;;;;1.70;1.60;;;20.40;48.30;;;24.03;32.56;100859.13;5095324;28;20052;-39
2021/11/13 01:44:35;;;;;;;1.60;1.50;;;20.40;48.20;;;24.03;32.75;100847.59;5095336;28;20048;-39
2021/11/13 01:47:02;;;;;;;1.90;1.70;;;20.40;48.20;;;24.01;32.74;100846.88;5095046;28;20097;-39
2021/11/13 01:49:28;;;;;;;2.05;1.70;;;20.40;48.20;;;24.05;32.64;100848.31;5095087;28;20052;-40
2021/11/13 01:51:54;;;;;;;2.35;1.95;;;20.40;48.20;;;24.05;32.79;100841.16;5095115;28;20121;-39
2021/11/13 01:54:21;;;;;;;1.60;1.50;;;20.40;48.20;;;24.04;32.56;100839.47;5095122;28;20533;-39
2021/11/13 01:56:50;;;;;;;1.80;1.70;;;20.40;48.20;;;24.05;32.54;100837.66;5095136;28;20052;-39
2021/11/13 01:59:18;;;;;;;1.67;1.58;;;20.40;48.20;;;24.04;32.57;100833.28;5095010;28;20048;-39
2021/11/13 02:01:44;;;;;;;1.80;1.70;;;20.40;48.30;;;24.04;32.65;100838.63;5094971;28;20052;-39
2021/11/13 02:04:10;;;;;;;1.80;1.58;;;20.40;48.30;;;24.02;32.70;100832.53;5095064;28;20043;-39
2021/11/13 02:06:36;;;;;;;1.60;1.50;;;20.40;48.30;;;24.04;32.61;100836.81;5095269;28;20043;-38
2021/11/13 02:09:06;;;;;;;1.95;1.77;;;20.30;48.20;;;24.03;32.59;100827.06;5094815;28;20950;-40
2021/11/13 02:11:32;;;;;;;1.77;1.67;;;20.40;48.20;;;24.02;32.76;100828.06;5094842;28;20539;-39
2021/11/13 02:14:02;;;;;;;1.60;1.50;;;20.30;48.80;;;24.00;32.63;100824.63;5094837;28;20044;-40
2021/11/13 02:16:29;;;;;;;1.67;1.58;;;20.30;48.20;;;24.00;32.70;100834.47;5094738;28;20495;-39
2021/11/13 02:18:55;;;;;;;1.65;1.55;;;20.30;48.20;;;24.03;32.67;100834.25;5094730;28;20120;-39
2021/11/13 02:21:21;;;;;;;1.73;1.42;;;20.40;48.30;;;24.04;32.70;100833.28;5094734;28;20556;-40
2021/11/13 02:23:48;;;;;;;1.70;1.60;;;20.40;48.20;;;24.04;32.53;100827.94;5094556;28;20127;-39
2021/11/13 02:26:14;;;;;;;1.48;1.38;;;20.40;48.20;;;24.03;32.62;100829.75;5094721;28;20527;-39
2021/11/13 02:28:41;;;;;;;2.10;1.90;;;20.40;48.20;;;24.02;32.58;100822.72;5094681;28;20124;-39
2021/11/13 02:31:12;;;;;;;1.70;1.60;;;20.40;48.20;;;24.00;32.57;100823.78;5094375;28;20044;-39
2021/11/13 02:33:39;;;;;;;1.40;1.30;;;20.40;48.20;;;24.06;32.67;100836.69;5094528;28;20052;-39
2021/11/13 02:36:08;;;;;;;2.35;1.98;;;20.40;48.20;;;24.02;32.56;100828.06;5094548;28;20044;-39
2021/11/13 02:38:40;;;;;;;1.70;1.60;;;20.40;48.20;;;24.01;32.71;100829.00;5094768;28;20139;-39
2021/11/13 02:41:11;;;;;;;1.58;1.48;;;20.30;48.20;;;24.04;32.52;100833.28;5094330;28;20059;-38
2021/11/13 02:43:38;;;;;;;1.35;1.25;;;20.30;48.20;;;24.05;32.47;100819.78;5094751;28;20084;-39
2021/11/13 02:46:08;;;;;;;2.35;1.73;;;20.30;48.20;;;24.04;32.42;100830.63;5093177;28;20040;-40
2021/11/13 02:48:39;;;;;;;2.13;1.92;;;20.30;48.20;;;24.04;32.71;100830.63;5094203;28;20135;-39
2021/11/13 02:51:06;;;;;;;1.50;1.40;;;20.30;48.30;;;24.05;32.51;100826.97;5092933;28;20566;-39
2021/11/13 02:53:31;;;;;;;1.90;1.50;;;20.30;48.30;;;24.03;32.43;100820.88;5094227;28;20060;-39
2021/11/13 02:56:00;;;;;;;1.50;1.40;;;20.30;48.30;;;24.00;32.67;100824.63;5094263;28;20106;-39
2021/11/13 02:58:26;;;;;;;1.83;1.50;;;20.30;48.30;;;24.03;32.55;100824.41;5094382;28;20101;-38
2021/11/13 03:01:10;;;;;;;1.70;1.60;;;20.30;48.30;;;24.01;32.72;100814.81;5094565;28;20052;-41
2021/11/13 03:03:38;;;;;;;1.80;1.70;;;20.30;48.20;;;24.04;32.60;100827.94;5094089;28;20094;-39
2021/11/13 03:06:10;;;;;;;1.77;1.67;;;20.30;48.20;;;24.03;32.80;100820.88;5094047;28;20090;-40
2021/11/13 03:08:40;;;;;;;2.08;1.80;;;20.30;48.30;;;24.03;32.64;100818.22;5093907;28;20534;-38
2021/11/13 03:11:09;;;;;;;1.80;1.67;;;20.30;48.30;;;24.00;32.79;100813.94;5094022;28;20052;-39
2021/11/13 03:13:37;;;;;;;1.75;1.50;;;20.30;48.30;;;24.00;32.64;100816.63;5094310;28;20090;-39
2021/11/13 03:16:05;;;;;;;1.85;1.60;;;20.30;48.30;;;23.99;32.67;100814.06;5093985;28;20131;-39
2021/11/13 03:18:32;;;;;;;1.73;1.63;;;20.30;48.30;;;24.00;32.46;100816.63;5094074;28;20044;-40
2021/11/13 03:21:04;;;;;;;1.63;1.52;;;20.30;48.30;;;24.04;32.56;100811.91;5093615;28;20050;-39
2021/11/13 03:23:30;;;;;;;1.65;1.55;;;20.30;48.20;;;24.02;32.54;100812.03;5093786;28;20040;-40
2021/11/13 03:26:05;;;;;;;1.85;1.75;;;20.30;48.20;;;24.01;32.81;100812.16;5094248;28;20142;-40
2021/11/13 03:28:36;;;;;;;1.70;1.60;;;20.30;48.80;;;24.02;32.52;100806.69;5093678;28;20051;-38
2021/11/13 03:31:02;;;;;;;1.98;1.77;;;20.30;48.30;;;24.02;32.61;100805.81;5093587;28;20123;-39
2021/11/13 03:33:30;;;;;;;1.98;1.80;;;20.30;48.20;;;24.02;32.53;100808.50;5093516;28;20105;-39
2021/11/13 03:35:57;;;;;;;1.58;1.48;;;20.30;48.20;;;24.01;32.77;100806.81;5093472;28;20052;-39
2021/11/13 03:38:23;;;;;;;1.83;1.65;;;20.30;48.20;;;24.04;32.65;100827.94;5075605;28;20122;-40
2021/11/13 03:40:49;;;;;;;1.92;1.83;;;20.30;48.20;;;24.02;32.49;100817.38;5093411;28;20055;-39
2021/11/13 03:43:17;;;;;;;1.80;1.70;;;20.30;48.20;;;24.02;32.68;100813.84;5093443;28;20116;-39
2021/11/13 03:45:47;;;;;;;1.88;1.67;;;20.30;48.80;;;24.02;32.50;100814.72;5093446;28;20083;-39
2021/11/13 03:48:13;;;;;;;1.63;1.52;;;20.30;48.30;;;23.99;32.69;100814.94;5093670;28;20048;-39
2021/11/13 03:50:39;;;;;;;2.03;1.88;;;20.30;48.20;;;24.02;32.66;100817.38;5093756;28;20048;-40
2021/11/13 03:53:06;;;;;;;1.80;1.70;;;20.30;48.20;;;23.98;32.59;100804.38;5093227;28;20093;-40
2021/11/13 03:55:33;;;;;;;1.92;1.73;;;20.30;48.20;;;23.97;32.42;100803.53;5092955;28;20047;-39
2021/11/13 03:57:59;;;;;;;2.08;1.70;;;20.30;48.20;;;24.02;32.63;100811.16;5093675;28;20097;-39
2021/11/13 04:00:27;;;;;;;1.92;1.77;;;20.30;48.30;;;24.02;32.81;100821.84;5092964;28;20044;-39
2021/11/13 04:02:54;;;;;;;1.83;1.73;;;20.30;48.30;;;24.00;32.63;100807.75;5093179;28;20056;-38
2021/11/13 04:05:22;;;;;;;1.70;1.60;;;20.30;48.20;;;24.01;32.53;100809.47;5093457;28;20048;-39
2021/11/13 04:07:50;;;;;;;1.80;1.70;;;20.30;48.20;;;24.02;32.61;100811.16;5093295;28;20048;-40
2021/11/13 04:10:17;;;;;;;1.60;1.50;;;20.30;48.20;;;24.05;32.53;100816.28;5092463;28;20071;-39
2021/11/13 04:12:44;;;;;;;1.70;1.60;;;20.30;48.10;;;24.05;32.48;100816.28;5092760;28;20062;-40
2021/11/13 04:15:12;;;;;;;1.67;1.58;;;20.30;48.10;;;24.02;32.50;100812.03;5092819;28;20116;-39
2021/11/13 04:17:39;;;;;;;2.40;2.15;;;20.40;48.10;;;24.07;32.70;100814.34;5093049;28;20051;-40
2021/11/13 04:20:08;;;;;;;2.65;1.73;;;20.40;48.10;;;24.05;32.50;100814.44;5092529;28;20063;-39
2021/11/13 04:22:34;;;;;;;1.83;1.70;;;20.40;48.00;;;24.07;32.67;100811.66;5092569;28;20060;-39
2021/11/13 04:25:00;;;;;;;1.83;1.73;;;20.40;48.00;;;24.11;32.65;100804.28;5092679;28;20055;-39
2021/11/13 04:27:26;;;;;;;2.00;1.65;;;20.40;47.90;;;24.09;32.51;100809.75;5093167;28;20071;-39
2021/11/13 04:29:52;;;;;;;1.52;1.42;;;20.40;47.90;;;24.09;32.31;100812.41;5092584;28;20503;-39
2021/11/13 04:32:17;;;;;;;1.85;1.75;;;20.40;47.90;;;24.11;32.55;100821.16;5092694;28;20063;-39
2021/11/13 04:35:02;;;;;;;2.30;2.10;;;20.40;47.90;;;24.12;32.48;100819.34;5092687;28;20105;-39
2021/11/13 04:37:29;;;;;;;2.38;1.75;;;20.50;47.90;;;24.13;32.59;100811.22;5093089;28;20082;-38
2021/11/13 04:39:55;;;;;;;1.70;1.60;;;20.50;47.90;;;24.13;32.59;100813.03;5074402;28;20084;-38
2021/11/13 04:42:21;;;;;;;2.15;1.95;;;20.50;47.80;;;24.16;32.62;100815.47;5092644;28;20487;-39
2021/11/13 04:44:49;;;;;;;1.70;1.60;;;20.50;47.80;;;24.14;32.44;100817.38;5092608;28;20078;-47
2021/11/13 04:47:17;;;;;;;2.25;2.03;;;20.50;47.70;;;24.18;32.46;100810.88;5092525;28;20131;-39
2021/11/13 04:49:45;;;;;;;2.08;1.80;;;20.50;47.70;;;24.20;32.41;100816.94;5092399;28;20050;-39
2021/11/13 04:52:11;;;;;;;1.77;1.67;;;20.50;47.70;;;24.21;32.54;100824.00;5092396;28;20036;-39
2021/11/13 04:54:36;;;;;;;2.15;1.88;;;20.60;47.70;;;24.20;32.34;100816.94;5092494;28;20097;-40
2021/11/13 04:57:04;;;;;;;2.28;2.03;;;20.60;47.70;;;24.20;32.55;100831.13;5092959;28;20082;-39
2021/11/13 04:59:30;;;;;;;1.70;1.60;;;20.60;47.60;;;24.23;32.41;100828.22;5092178;28;20143;-39
2021/11/13 05:01:55;;;;;;;1.90;1.60;;;20.60;47.60;;;24.22;32.48;100817.66;5092396;28;20511;-39
2021/11/13 05:04:21;;;;;;;2.10;1.90;;;20.60;47.60;;;24.26;32.38;100821.81;5092652;28;20052;-40
2021/11/13 05:06:47;;;;;;;2.00;1.90;;;20.60;47.50;;;24.28;32.38;100835.06;5092372;28;20060;-39
2021/11/13 05:09:13;;;;;;;1.70;1.58;;;20.60;47.50;;;24.28;32.38;100827.03;5094740;28;20044;-39
2021/11/13 05:11:38;;;;;;;1.90;1.80;;;20.70;47.50;;;24.25;32.35;100822.78;5096153;28;20101;-39
2021/11/13 05:14:04;;;;;;;1.67;1.58;;;20.60;47.50;;;24.29;32.31;100826.94;5095792;28;20061;-39
2021/11/13 05:16:30;;;;;;;3.40;1.83;;;20.70;47.50;;;24.28;32.43;100825.22;5095744;28;20094;-40
2021/11/13 05:18:56;;;;;;;1.83;1.73;;;20.70;47.50;;;24.31;32.37;100827.66;5095422;28;20044;-39
2021/11/13 05:21:22;;;;;;;1.77;1.67;;;20.70;47.50;;;24.27;32.34;100820.81;5095577;28;20048;-39
2021/11/13 05:23:47;;;;;;;1.60;1.50;;;20.70;47.50;;;24.31;32.23;100824.16;5095631;28;20048;-39
2021/11/13 05:26:13;;;;;;;2.05;1.63;;;20.70;47.50;;;24.28;32.25;100816.34;5095636;28;20052;-38
2021/11/13 05:28:43;;;;;;;1.83;1.73;;;20.70;47.50;;;24.31;32.03;100821.47;5095482;28;20048;-39
2021/11/13 05:31:10;;;;;;;2.08;1.70;;;20.70;47.50;;;24.34;32.35;100826.56;5095496;28;20040;-39
2021/11/13 05:33:36;;;;;;;1.50;1.40;;;20.70;47.40;;;24.31;32.30;100821.47;5095407;28;20138;-39
2021/11/13 05:36:03;;;;;;;1.60;1.50;;;20.70;47.40;;;24.31;32.29;100822.31;5096023;28;20048;-39
2021/11/13 05:38:29;;;;;;;1.70;1.60;;;20.70;47.40;;;24.35;32.11;100839.78;5095402;28;20054;-39
2021/11/13 05:40:54;;;;;;;1.55;1.45;;;20.70;47.40;;;24.36;32.34;100830.81;5095581;28;20036;-38
2021/11/13 05:43:20;;;;;;;1.95;1.67;;;20.70;47.40;;;24.36;32.32;100838.84;5095349;28;20040;-39
2021/11/13 05:45:47;;;;;;;1.95;1.80;;;20.70;47.40;;;24.37;32.11;100848.56;5095229;28;20131;-38
2021/11/13 05:48:16;;;;;;;2.20;2.00;;;20.70;47.40;;;24.36;32.30;100838.00;5095146;28;20048;-40
2021/11/13 05:50:44;;;;;;;2.17;1.95;;;20.70;47.40;;;24.38;32.30;100846.75;5095131;28;20492;-42
2021/11/13 05:53:10;;;;;;;2.25;2.00;;;20.70;47.40;;;24.36;32.10;100835.31;5095064;28;20055;-39
2021/11/13 05:55:36;;;;;;;2.97;1.88;;;20.70;47.30;;;24.38;32.28;100838.72;5095021;28;20092;-39
2021/11/13 05:58:03;;;;;;;1.70;1.60;;;20.80;47.40;;;24.33;32.21;100832.88;5095165;28;20056;-39
2021/11/13 06:00:29;;;;;;;1.70;1.60;;;20.70;47.30;;;24.37;32.31;100837.88;5094998;28;20518;-39
2021/11/13 06:02:56;;;;;;;1.73;1.60;;;20.70;47.30;;;24.39;32.29;100840.41;5095091;28;20061;-39
2021/11/13 06:05:23;;;;;;;1.88;1.77;;;20.70;47.30;;;24.37;32.51;100840.56;5077113;28;20050;-39
2021/11/13 06:07:50;;;;;;;1.50;1.40;;;20.70;47.30;;;24.34;32.20;100830.09;5094852;28;20044;-39
2021/11/13 06:10:17;;;;;;;2.22;1.80;;;20.80;47.40;;;24.40;32.17;100834.94;5094973;28;20048;-39
2021/11/13 06:12:43;;;;;;;1.65;1.55;;;20.70;47.30;;;24.41;32.07;100836.66;5094976;28;20105;-39
2021/11/13 06:15:10;;;;;;;1.50;1.40;;;20.80;47.30;;;24.40;32.18;100831.44;5094678;28;20044;-40
2021/11/13 06:17:36;;;;;;;1.70;1.60;;;20.80;47.30;;;24.43;31.96;100844.56;5094909;28;20056;-40
2021/11/13 06:20:05;;;;;;;2.17;1.98;;;20.80;47.30;;;24.42;32.10;100842.84;5094555;28;20044;-39
2021/11/13 06:22:31;;;;;;;1.90;1.73;;;20.80;47.30;;;24.39;32.04;100829.72;5094869;28;20143;-39
2021/11/13 06:24:56;;;;;;;1.65;1.55;;;20.80;47.30;;;24.42;32.29;100843.72;5094647;28;20130;-39
2021/11/13 06:27:22;;;;;;;1.75;1.65;;;20.80;47.30;;;24.43;32.03;100841.91;5094689;28;20079;-39
2021/11/13 06:29:49;;;;;;;1.70;1.60;;;20.80;47.30;;;24.44;32.25;100842.72;5094652;28;20060;-39
2021/11/13 06:32:14;;;;;;;1.95;1.77;;;20.70;47.30;;;24.41;32.14;100844.69;5094830;28;20472;-42
2021/11/13 06:34:40;;;;;;;2.05;1.85;;;20.80;47.30;;;24.41;32.20;100843.84;5094460;28;20040;-38
2021/11/13 06:37:08;;;;;;;1.85;1.58;;;20.80;47.80;;;24.41;31.94;100852.69;5094763;28;20048;-39
2021/11/13 06:39:35;;;;;;;2.08;1.92;;;20.80;47.90;;;24.42;32.07;100848.19;5094193;28;20048;-39
2021/11/13 06:42:03;;;;;;;1.80;1.70;;;20.80;47.30;;;24.44;32.07;100859.66;5094428;28;20050;-40
2021/11/13 06:44:28;;;;;;;2.13;1.92;;;20.80;47.30;;;24.46;31.88;100871.06;5094531;28;20469;-39
2021/11/13 06:46:54;;;;;;;2.22;1.70;;;20.70;47.30;;;24.44;31.95;100872.13;5094234;28;20054;-39
2021/11/13 06:49:20;;;;;;;1.98;1.77;;;20.80;47.30;;;24.42;32.03;100877.59;5094181;28;20127;-39
2021/11/13 06:51:51;;;;;;;2.13;1.92;;;20.80;47.30;;;24.46;32.13;100881.75;5094478;28;20040;-39
2021/11/13 06:54:17;;;;;;;1.90;1.80;;;20.80;47.30;;;24.48;31.92;100889.66;5094263;28;20055;-40
2021/11/13 06:56:43;;;;;;;1.90;1.63;;;20.80;47.20;;;24.46;32.20;100886.22;5094134;28;20044;-39
2021/11/13 06:59:09;;;;;;;2.08;1.85;;;20.80;47.30;;;24.46;32.11;100881.75;5094030;28;20052;-39
2021/11/13 07:01:35;;;;;;;1.90;1.80;;;20.80;47.30;;;24.46;31.95;100888.91;5094106;28;20044;-40
2021/11/13 07:04:01;;;;;;;2.00;1.80;;;20.80;47.30;;;24.45;31.96;100890.72;5094085;28;20044;-39
2021/11/13 07:06:27;;;;;;;1.98;1.85;;;20.80;47.30;;;24.44;32.06;100889.03;5094057;28;20076;-40
2021/11/13 07:08:53;;;;;;;1.85;1.70;;;20.80;47.30;;;24.47;32.08;100902.16;5093930;28;20048;-39
2021/11/13 07:11:18;;;;;;;2.00;1.90;;;20.80;47.30;;;24.47;32.03;100899.47;5093923;28;20548;-40
2021/11/13 07:13:44;;;;;;;1.77;1.67;;;20.70;47.20;;;24.45;32.06;100892.56;5093828;28;20184;-39
2021/11/13 07:16:10;;;;;;;2.10;1.90;;;20.80;47.30;;;24.46;32.00;100894.25;5094383;28;20446;-41
2021/11/13 07:18:36;;;;;;;2.40;1.90;;;20.80;47.30;;;24.45;32.08;100900.56;5093809;28;20052;-39
2021/11/13 07:21:06;;;;;;;2.20;1.80;;;20.80;47.30;;;24.47;32.08;100907.50;5093656;28;20056;-38
2021/11/13 07:23:33;;;;;;;2.10;1.90;;;20.80;47.30;;;24.47;32.11;100903.97;5093998;28;20044;-39
2021/11/13 07:26:01;;;;;;;2.17;1.98;;;20.80;47.20;;;24.46;32.10;100911.16;5093740;28;20074;-39
2021/11/13 07:28:48;;;;;;;2.17;1.98;;;20.80;47.20;;;24.49;31.99;100915.41;5093779;28;20098;-39
2021/11/13 07:31:16;;;;;;;1.55;1.45;;;20.80;47.20;;;24.49;32.08;100910.91;5092998;28;20585;-39
2021/11/13 07:33:45;;;;;;;1.92;1.83;;;20.80;47.20;;;24.50;32.19;100920.63;5093556;28;20139;-39
2021/11/13 07:36:11;;;;;;;1.75;1.52;;;20.80;47.20;;;24.48;32.04;100924.41;5093582;28;20070;-39
2021/11/13 07:38:39;;;;;;;2.72;2.10;;;20.80;47.20;;;24.47;31.80;100923.53;5093541;28;20059;-40
2021/11/13 07:41:07;;;;;;;1.92;1.83;;;20.80;47.20;;;24.50;32.10;100933.16;5093328;28;20048;-39
2021/11/13 07:43:33;;;;;;;1.75;1.63;;;20.80;47.20;;;24.49;31.96;100931.44;5093459;28;20066;-40
2021/11/13 07:45:59;;;;;;;1.92;1.83;;;20.80;47.20;;;24.48;31.89;100933.25;5093735;28;20131;-40
2021/11/13 07:48:25;;;;;;;2.45;2.10;;;20.80;47.20;;;24.48;31.81;100937.75;5093459;28;20052;-39
2021/11/13 07:50:51;;;;;;;1.60;1.50;;;20.80;47.20;;;24.49;31.94;100943.00;5093161;28;20475;-39
2021/11/13 07:53:17;;;;;;;2.15;1.92;;;20.80;47.20;;;24.46;32.06;100939.69;5093258;28;20044;-38
2021/11/13 07:55:43;;;;;;;2.35;2.13;;;20.80;47.20;;;24.49;32.07;100947.47;5093224;28;20428;-39
2021/11/13 07:58:13;;;;;;;2.63;2.10;;;20.80;47.20;;;24.46;31.89;100945.91;5093195;28;20086;-39
2021/11/13 08:00:39;;;;;;;2.03;1.83;;;20.80;47.20;;;24.52;31.81;100949.91;5093661;28;20044;-39
2021/11/13 08:03:04;;;;;;;2.15;1.90;;;20.80;47.20;;;24.49;31.82;100950.16;5093123;28;20071;-41
2021/11/13 08:05:31;;;;;;;2.20;1.80;;;20.80;47.20;;;24.47;32.00;100950.25;5093214;28;20044;-39
2021/11/13 08:07:57;;;;;;;2.75;1.70;;;20.80;47.20;;;24.50;31.89;100957.22;5075587;28;20040;-40
2021/11/13 08:10:23;;;;;;;2.00;1.80;;;20.80;47.70;;;24.48;31.93;100951.97;5093492;28;20544;-39
2021/11/13 08:12:49;;;;;;;2.28;1.98;;;20.80;47.20;;;24.51;32.03;100964.28;5092983;28;20113;-39
2021/11/13 08:15:17;;;;;;;1.92;1.77;;;20.80;47.20;;;24.49;31.97;100963.50;5093194;28;20053;-39
2021/11/13 08:17:44;;;;;;;2.00;1.80;;;20.80;47.20;;;24.48;31.80;100960.00;5092794;28;20124;-39
2021/11/13 08:20:12;;;;;;;1.85;1.75;;;20.80;47.20;;;24.50;32.07;100967.91;5092617;28;20414;-38
2021/11/13 08:22:41;;;;;;;1.88;1.67;;;20.80;47.20;;;24.49;31.91;100961.72;5093294;28;20052;-39
2021/11/13 08:25:10;;;;;;;2.35;2.00;;;20.90;47.20;;;24.52;31.91;100968.63;5092790;28;20048;-38
2021/11/13 08:27:37;;;;;;;1.80;1.70;;;20.80;47.10;;;24.52;31.81;100968.63;5092722;28;20048;-39
2021/11/13 08:30:06;;;;;;;1.80;1.70;;;20.80;47.60;;;24.49;31.97;100960.84;5074301;28;20506;-39
2021/11/13 08:32:34;;;;;;;1.63;1.52;;;20.90;47.10;;;24.53;31.94;100970.34;5092823;28;20377;-41
2021/11/13 08:35:00;;;;;;;2.08;1.88;;;20.90;47.10;;;24.51;32.12;100967.78;5092889;28;20055;-39
2021/11/13 08:37:27;;;;;;;2.03;1.83;;;20.90;47.10;;;24.51;31.93;100967.78;5092619;28;20484;-39
2021/11/13 08:39:52;;;;;;;2.05;1.85;;;20.90;47.10;;;24.52;32.04;100974.81;5093116;28;20135;-39
2021/11/13 08:42:18;;;;;;;2.20;2.00;;;20.90;47.10;;;24.55;31.93;100969.28;5092655;28;20066;-38
2021/11/13 08:44:46;;;;;;;1.83;1.70;;;20.90;47.00;;;24.55;32.04;100973.78;5096372;28;20070;-39
2021/11/13 08:47:13;;;;;;;1.85;1.70;;;20.90;47.00;;;24.55;32.05;100968.44;5096260;28;20040;-39
2021/11/13 08:49:42;;;;;;;1.90;1.80;;;20.90;47.00;;;24.55;31.67;100973.78;5095976;28;20044;-38
2021/11/13 08:52:11;;;;;;;2.63;2.05;;;20.90;47.00;;;24.53;31.81;100967.66;5096411;28;20093;-39
2021/11/13 08:54:37;;;;;;;1.70;1.60;;;20.90;47.00;;;24.56;31.91;100971.00;5096504;28;20052;-39
2021/11/13 08:57:05;;;;;;;1.80;1.70;;;20.90;47.00;;;24.56;31.78;100962.97;5096081;28;20074;-39
2021/11/13 08:59:31;;;;;;;2.00;1.90;;;20.90;47.00;;;24.57;31.95;100966.50;5096043;28;20044;-40
2021/11/13 09:02:00;;;;;;;2.10;1.90;;;20.90;47.00;;;24.55;31.72;100960.41;5095870;28;20059;-39
2021/11/13 09:04:27;;;;;;;1.80;1.70;;;20.90;47.00;;;24.57;32.03;100962.00;5096253;28;20044;-40
2021/11/13 09:06:53;;;;;;;2.03;1.80;;;20.90;47.00;;;24.55;31.92;100958.59;5095927;28;20051;-40
2021/11/13 09:09:19;;;;;;;2.25;1.92;;;20.90;47.00;;;24.57;31.82;100961.13;5095797;28;20105;-40
2021/11/13 09:11:45;;;;;;;2.20;2.00;;;20.90;47.00;;;24.59;31.70;100973.44;5095664;28;20069;-39
2021/11/13 09:14:15;;;;;;;2.10;1.92;;;20.90;47.00;;;24.58;31.73;100963.69;5095750;28;20138;-39
2021/11/13 09:16:41;;;;;;;1.80;1.70;;;20.90;47.00;;;24.57;31.91;100967.38;5095657;28;20441;-38
2021/11/13 09:19:08;;;;;;;1.98;1.52;;;20.90;47.00;;;24.58;32.02;100974.41;5076476;28;20048;-39
2021/11/13 09:21:34;;;;;;;2.05;1.85;;;20.90;47.00;;;24.56;31.92;100976.34;5095656;28;20140;-39
2021/11/13 09:24:02;;;;;;;2.03;1.90;;;20.90;47.00;;;24.58;31.83;100978.91;5095838;28;20142;-39
2021/11/13 09:26:28;;;;;;;1.95;1.65;;;20.90;47.00;;;24.58;31.75;100987.75;5095887;28;20048;-40
2021/11/13 09:28:56;;;;;;;2.05;1.85;;;20.90;47.00;;;24.58;31.85;100995.78;5095361;28;20054;-39
2021/11/13 09:31:22;;;;;;;1.90;1.80;;;20.90;47.00;;;24.56;31.86;100991.53;5095434;28;20380;-39
2021/11/13 09:33:48;;;;;;;1.70;1.60;;;20.90;47.00;;;24.58;31.82;100990.44;5095432;28;20044;-39
2021/11/13 09:36:14;;;;;;;1.90;1.80;;;20.90;47.00;;;24.58;31.60;100992.25;5095964;28;20051;-39
2021/11/13 09:38:42;;;;;;;2.30;1.83;;;20.90;47.00;;;24.57;31.68;100995.91;5095295;28;20488;-39
2021/11/13 09:41:09;;;;;;;1.90;1.63;;;20.90;47.00;;;24.55;31.77;100996.00;5095192;28;20055;-39
2021/11/13 09:43:37;;;;;;;2.20;1.90;;;20.90;47.00;;;24.59;31.62;101004.66;5095300;28;20052;-39
2021/11/13 09:46:08;;;;;;;2.30;2.05;;;20.90;47.00;;;24.59;31.94;101004.66;5095273;28;20044;-39
2021/11/13 09:48:35;;;;;;;2.15;1.73;;;20.90;47.00;;;24.59;31.81;101010.00;5095110;28;20047;-40
2021/11/13 09:51:04;;;;;;;1.85;1.75;;;20.90;47.00;;;24.60;31.83;101009.88;5095229;28;20040;-40
2021/11/13 09:53:30;;;;;;;1.77;1.67;;;20.90;47.00;;;24.58;31.65;101003.81;5094660;28;20044;-38
2021/11/13 09:55:58;;;;;;;1.88;1.73;;;20.90;47.00;;;24.59;31.84;101010.88;5095564;28;20044;-40
2021/11/13 09:58:27;;;;;;;1.77;1.63;;;20.90;47.00;;;24.58;31.71;101014.50;5094891;28;20556;-38
2021/11/13 10:00:54;;;;;;;1.83;1.73;;;20.90;47.00;;;24.62;31.71;101016.94;5095285;28;20044;-38
2021/11/13 10:03:20;;;;;;;1.60;1.50;;;20.90;47.00;;;24.57;31.75;101003.91;5095071;28;20055;-40
2021/11/13 10:05:56;;;;;;;1.98;1.80;;;20.90;47.00;;;24.60;31.76;101020.56;5095335;28;20402;-39
2021/11/13 10:08:23;;;;;;;2.17;1.98;;;20.90;46.90;;;24.60;31.71;101017.06;5095287;28;20053;-39
2021/11/13 10:10:55;;;;;;;1.90;1.80;;;20.90;46.90;;;24.61;31.67;101024.13;5094906;28;20051;-40
2021/11/13 10:13:33;;;;;;;1.85;1.75;;;20.90;46.80;;;24.63;31.70;101027.53;5094853;28;20048;-39